sensor_id;sensor_type;location;lat;lon;timestamp;P1;durP1;ratioP1;P2;durP2;ratioP2
14191;SDS011;7177;48.572;7.838;2022-10-31T00:00:27;6.73;;;5.57;;
14191;SDS011;7177;48.572;7.838;2022-10-31T00:02:52;8.67;;;5.97;;
14191;SDS011;7177;48.572;7.838;2022-10-31T00:05:18;7.30;;;6.30;;
14191;SDS011;7177;48.572;7.838;2022-10-31T00:07:43;8.93;;;5.80;;
14191;SDS011;7177;48.572;7.838;2022-10-31T00:10:09;7.90;;;5.77;;
14191;SDS011;7177;48.572;7.838;2022-10-31T00:12:34;7.33;;;5.07;;
14191;SDS011;7177;48.572;7.838;2022-10-31T00:15:00;7.63;;;5.43;;
14191;SDS011;7177;48.572;7.838;2022-10-31T00:17:25;8.13;;;5.77;;
14191;SDS011;7177;48.572;7.838;2022-10-31T00:19:51;8.93;;;6.00;;
14191;SDS011;7177;48.572;7.838;2022-10-31T00:22:16;8.30;;;5.90;;
14191;SDS011;7177;48.572;7.838;2022-10-31T00:24:42;13.30;;;7.47;;
14191;SDS011;7177;48.572;7.838;2022-10-31T00:27:07;7.40;;;5.93;;
14191;SDS011;7177;48.572;7.838;2022-10-31T00:29:33;8.90;;;6.57;;
14191;SDS011;7177;48.572;7.838;2022-10-31T00:31:58;8.47;;;6.30;;
14191;SDS011;7177;48.572;7.838;2022-10-31T00:34:24;10.33;;;5.93;;
14191;SDS011;7177;48.572;7.838;2022-10-31T00:36:49;8.40;;;6.57;;
14191;SDS011;7177;48.572;7.838;2022-10-31T00:39:15;9.97;;;6.77;;
14191;SDS011;7177;48.572;7.838;2022-10-31T00:41:40;8.10;;;6.13;;
14191;SDS011;7177;48.572;7.838;2022-10-31T00:44:06;16.83;;;7.90;;
14191;SDS011;7177;48.572;7.838;2022-10-31T00:46:32;10.23;;;6.70;;
14191;SDS011;7177;48.572;7.838;2022-10-31T00:48:57;10.33;;;6.50;;
14191;SDS011;7177;48.572;7.838;2022-10-31T00:51:23;8.23;;;6.47;;
14191;SDS011;7177;48.572;7.838;2022-10-31T00:53:48;13.20;;;6.63;;
14191;SDS011;7177;48.572;7.838;2022-10-31T00:56:14;9.77;;;6.60;;
14191;SDS011;7177;48.572;7.838;2022-10-31T00:58:39;8.83;;;6.50;;
14191;SDS011;7177;48.572;7.838;2022-10-31T01:01:05;7.77;;;5.97;;
14191;SDS011;7177;48.572;7.838;2022-10-31T01:03:31;10.97;;;6.23;;
14191;SDS011;7177;48.572;7.838;2022-10-31T01:08:34;8.83;;;7.17;;
14191;SDS011;7177;48.572;7.838;2022-10-31T01:11:16;11.83;;;7.80;;
14191;SDS011;7177;48.572;7.838;2022-10-31T01:13:43;10.30;;;7.33;;
14191;SDS011;7177;48.572;7.838;2022-10-31T01:16:11;11.87;;;7.70;;
14191;SDS011;7177;48.572;7.838;2022-10-31T01:18:38;8.37;;;7.03;;
14191;SDS011;7177;48.572;7.838;2022-10-31T01:21:23;8.93;;;6.70;;
14191;SDS011;7177;48.572;7.838;2022-10-31T01:23:50;10.83;;;7.93;;
14191;SDS011;7177;48.572;7.838;2022-10-31T01:26:22;12.30;;;8.30;;
14191;SDS011;7177;48.572;7.838;2022-10-31T01:28:53;16.03;;;7.73;;
14191;SDS011;7177;48.572;7.838;2022-10-31T01:31:21;13.17;;;7.43;;
14191;SDS011;7177;48.572;7.838;2022-10-31T01:33:49;10.83;;;7.10;;
14191;SDS011;7177;48.572;7.838;2022-10-31T01:36:19;9.43;;;7.40;;
14191;SDS011;7177;48.572;7.838;2022-10-31T01:38:46;8.57;;;7.20;;
14191;SDS011;7177;48.572;7.838;2022-10-31T01:41:16;9.40;;;6.97;;
14191;SDS011;7177;48.572;7.838;2022-10-31T01:43:44;9.20;;;6.53;;
14191;SDS011;7177;48.572;7.838;2022-10-31T01:46:15;9.13;;;6.97;;
14191;SDS011;7177;48.572;7.838;2022-10-31T01:48:44;7.60;;;6.00;;
14191;SDS011;7177;48.572;7.838;2022-10-31T01:51:11;10.13;;;6.60;;
14191;SDS011;7177;48.572;7.838;2022-10-31T01:53:38;10.13;;;7.20;;
14191;SDS011;7177;48.572;7.838;2022-10-31T01:56:06;9.77;;;6.87;;
14191;SDS011;7177;48.572;7.838;2022-10-31T01:58:32;9.07;;;6.33;;
14191;SDS011;7177;48.572;7.838;2022-10-31T02:00:58;13.70;;;6.80;;
14191;SDS011;7177;48.572;7.838;2022-10-31T02:03:26;11.70;;;7.37;;
14191;SDS011;7177;48.572;7.838;2022-10-31T02:05:53;9.57;;;7.10;;
14191;SDS011;7177;48.572;7.838;2022-10-31T02:08:21;8.03;;;6.77;;
14191;SDS011;7177;48.572;7.838;2022-10-31T02:10:51;8.67;;;5.80;;
14191;SDS011;7177;48.572;7.838;2022-10-31T02:13:17;10.90;;;6.57;;
14191;SDS011;7177;48.572;7.838;2022-10-31T02:15:44;7.83;;;6.13;;
14191;SDS011;7177;48.572;7.838;2022-10-31T02:18:12;7.80;;;5.73;;
14191;SDS011;7177;48.572;7.838;2022-10-31T02:20:50;6.33;;;5.70;;
14191;SDS011;7177;48.572;7.838;2022-10-31T02:23:25;6.33;;;5.60;;
14191;SDS011;7177;48.572;7.838;2022-10-31T02:29:47;10.23;;;6.63;;
14191;SDS011;7177;48.572;7.838;2022-10-31T02:32:27;8.07;;;5.27;;
14191;SDS011;7177;48.572;7.838;2022-10-31T02:37:46;5.73;;;5.13;;
14191;SDS011;7177;48.572;7.838;2022-10-31T02:40:15;6.23;;;5.37;;
14191;SDS011;7177;48.572;7.838;2022-10-31T02:45:28;6.70;;;5.60;;
14191;SDS011;7177;48.572;7.838;2022-10-31T02:47:59;6.37;;;4.70;;
14191;SDS011;7177;48.572;7.838;2022-10-31T02:50:29;7.47;;;5.27;;
14191;SDS011;7177;48.572;7.838;2022-10-31T02:52:58;8.03;;;6.00;;
14191;SDS011;7177;48.572;7.838;2022-10-31T02:57:49;7.43;;;5.57;;
14191;SDS011;7177;48.572;7.838;2022-10-31T03:00:19;9.07;;;5.60;;
14191;SDS011;7177;48.572;7.838;2022-10-31T03:02:56;6.87;;;5.37;;
14191;SDS011;7177;48.572;7.838;2022-10-31T03:05:41;7.83;;;4.87;;
14191;SDS011;7177;48.572;7.838;2022-10-31T03:11:02;10.13;;;5.27;;
14191;SDS011;7177;48.572;7.838;2022-10-31T03:14:14;10.23;;;4.57;;
14191;SDS011;7177;48.572;7.838;2022-10-31T03:16:27;5.17;;;4.37;;
14191;SDS011;7177;48.572;7.838;2022-10-31T03:19:05;4.83;;;4.33;;
14191;SDS011;7177;48.572;7.838;2022-10-31T03:21:54;8.20;;;5.27;;
14191;SDS011;7177;48.572;7.838;2022-10-31T03:24:29;6.23;;;4.77;;
14191;SDS011;7177;48.572;7.838;2022-10-31T03:27:01;8.00;;;5.70;;
14191;SDS011;7177;48.572;7.838;2022-10-31T03:29:30;11.00;;;5.53;;
14191;SDS011;7177;48.572;7.838;2022-10-31T03:32:00;6.83;;;5.03;;
14191;SDS011;7177;48.572;7.838;2022-10-31T03:34:30;9.07;;;6.03;;
14191;SDS011;7177;48.572;7.838;2022-10-31T03:36:57;8.77;;;5.70;;
14191;SDS011;7177;48.572;7.838;2022-10-31T03:39:25;8.00;;;5.13;;
14191;SDS011;7177;48.572;7.838;2022-10-31T03:41:54;6.00;;;4.40;;
14191;SDS011;7177;48.572;7.838;2022-10-31T03:44:29;5.03;;;4.53;;
14191;SDS011;7177;48.572;7.838;2022-10-31T03:46:57;6.57;;;4.57;;
14191;SDS011;7177;48.572;7.838;2022-10-31T03:49:23;7.80;;;4.87;;
14191;SDS011;7177;48.572;7.838;2022-10-31T03:51:51;7.57;;;5.17;;
14191;SDS011;7177;48.572;7.838;2022-10-31T03:57:20;7.70;;;5.10;;
14191;SDS011;7177;48.572;7.838;2022-10-31T03:59:55;9.70;;;5.33;;
14191;SDS011;7177;48.572;7.838;2022-10-31T04:02:28;8.20;;;5.33;;
14191;SDS011;7177;48.572;7.838;2022-10-31T04:04:57;12.70;;;5.40;;
14191;SDS011;7177;48.572;7.838;2022-10-31T04:07:25;6.73;;;4.73;;
14191;SDS011;7177;48.572;7.838;2022-10-31T04:09:55;10.17;;;4.97;;
14191;SDS011;7177;48.572;7.838;2022-10-31T04:12:22;4.90;;;4.27;;
14191;SDS011;7177;48.572;7.838;2022-10-31T04:14:50;8.17;;;4.40;;
14191;SDS011;7177;48.572;7.838;2022-10-31T04:17:18;9.17;;;5.27;;
14191;SDS011;7177;48.572;7.838;2022-10-31T04:19:47;9.93;;;6.07;;
14191;SDS011;7177;48.572;7.838;2022-10-31T04:22:12;7.17;;;5.17;;
14191;SDS011;7177;48.572;7.838;2022-10-31T04:24:39;5.10;;;4.60;;
14191;SDS011;7177;48.572;7.838;2022-10-31T04:27:05;5.60;;;4.93;;
14191;SDS011;7177;48.572;7.838;2022-10-31T04:29:32;7.27;;;5.30;;
14191;SDS011;7177;48.572;7.838;2022-10-31T04:31:57;7.10;;;4.73;;
14191;SDS011;7177;48.572;7.838;2022-10-31T04:34:23;4.43;;;4.00;;
14191;SDS011;7177;48.572;7.838;2022-10-31T04:36:48;5.20;;;4.20;;
14191;SDS011;7177;48.572;7.838;2022-10-31T04:39:14;5.10;;;4.40;;
14191;SDS011;7177;48.572;7.838;2022-10-31T04:41:39;6.03;;;4.17;;
14191;SDS011;7177;48.572;7.838;2022-10-31T04:44:05;6.73;;;4.20;;
14191;SDS011;7177;48.572;7.838;2022-10-31T04:46:31;5.73;;;4.30;;
14191;SDS011;7177;48.572;7.838;2022-10-31T04:48:56;6.77;;;4.40;;
14191;SDS011;7177;48.572;7.838;2022-10-31T04:51:22;5.93;;;4.60;;
14191;SDS011;7177;48.572;7.838;2022-10-31T04:53:47;6.27;;;4.50;;
14191;SDS011;7177;48.572;7.838;2022-10-31T04:56:13;10.00;;;5.17;;
14191;SDS011;7177;48.572;7.838;2022-10-31T04:58:38;10.23;;;5.67;;
14191;SDS011;7177;48.572;7.838;2022-10-31T05:01:04;8.57;;;4.50;;
14191;SDS011;7177;48.572;7.838;2022-10-31T05:03:30;5.97;;;4.53;;
14191;SDS011;7177;48.572;7.838;2022-10-31T05:05:55;5.97;;;4.90;;
14191;SDS011;7177;48.572;7.838;2022-10-31T05:08:21;6.37;;;4.73;;
14191;SDS011;7177;48.572;7.838;2022-10-31T05:10:46;7.53;;;4.67;;
14191;SDS011;7177;48.572;7.838;2022-10-31T05:13:12;5.83;;;4.60;;
14191;SDS011;7177;48.572;7.838;2022-10-31T05:15:39;5.53;;;4.43;;
14191;SDS011;7177;48.572;7.838;2022-10-31T05:18:05;7.73;;;4.60;;
14191;SDS011;7177;48.572;7.838;2022-10-31T05:20:30;4.47;;;4.07;;
14191;SDS011;7177;48.572;7.838;2022-10-31T05:22:56;5.97;;;4.43;;
14191;SDS011;7177;48.572;7.838;2022-10-31T05:25:24;7.87;;;4.93;;
14191;SDS011;7177;48.572;7.838;2022-10-31T05:27:51;11.13;;;5.40;;
14191;SDS011;7177;48.572;7.838;2022-10-31T05:30:18;7.77;;;5.07;;
14191;SDS011;7177;48.572;7.838;2022-10-31T05:32:47;4.77;;;4.27;;
14191;SDS011;7177;48.572;7.838;2022-10-31T05:35:15;8.80;;;5.50;;
14191;SDS011;7177;48.572;7.838;2022-10-31T05:37:42;5.97;;;4.10;;
14191;SDS011;7177;48.572;7.838;2022-10-31T05:40:08;4.87;;;4.30;;
14191;SDS011;7177;48.572;7.838;2022-10-31T05:42:35;4.77;;;4.27;;
14191;SDS011;7177;48.572;7.838;2022-10-31T05:45:02;6.60;;;4.53;;
14191;SDS011;7177;48.572;7.838;2022-10-31T05:47:28;7.47;;;5.40;;
14191;SDS011;7177;48.572;7.838;2022-10-31T05:49:54;7.33;;;5.30;;
14191;SDS011;7177;48.572;7.838;2022-10-31T05:52:19;6.67;;;5.03;;
14191;SDS011;7177;48.572;7.838;2022-10-31T05:54:45;6.00;;;4.57;;
14191;SDS011;7177;48.572;7.838;2022-10-31T05:57:10;7.43;;;4.37;;
14191;SDS011;7177;48.572;7.838;2022-10-31T05:59:36;8.17;;;4.60;;
14191;SDS011;7177;48.572;7.838;2022-10-31T06:02:01;5.13;;;4.00;;
14191;SDS011;7177;48.572;7.838;2022-10-31T06:04:27;5.07;;;3.97;;
14191;SDS011;7177;48.572;7.838;2022-10-31T06:06:52;4.63;;;4.13;;
14191;SDS011;7177;48.572;7.838;2022-10-31T06:09:18;5.50;;;4.60;;
14191;SDS011;7177;48.572;7.838;2022-10-31T06:11:43;5.80;;;4.70;;
14191;SDS011;7177;48.572;7.838;2022-10-31T06:14:09;8.50;;;5.30;;
14191;SDS011;7177;48.572;7.838;2022-10-31T06:16:35;9.73;;;6.20;;
14191;SDS011;7177;48.572;7.838;2022-10-31T06:19:00;8.07;;;5.87;;
14191;SDS011;7177;48.572;7.838;2022-10-31T06:21:26;9.23;;;5.57;;
14191;SDS011;7177;48.572;7.838;2022-10-31T06:23:51;4.70;;;4.17;;
14191;SDS011;7177;48.572;7.838;2022-10-31T06:26:17;6.00;;;4.50;;
14191;SDS011;7177;48.572;7.838;2022-10-31T06:28:42;4.47;;;3.70;;
14191;SDS011;7177;48.572;7.838;2022-10-31T06:31:08;4.90;;;3.73;;
14191;SDS011;7177;48.572;7.838;2022-10-31T06:33:33;5.07;;;3.80;;
14191;SDS011;7177;48.572;7.838;2022-10-31T06:35:59;6.60;;;4.00;;
14191;SDS011;7177;48.572;7.838;2022-10-31T06:38:26;5.17;;;3.87;;
14191;SDS011;7177;48.572;7.838;2022-10-31T06:40:52;5.50;;;3.93;;
14191;SDS011;7177;48.572;7.838;2022-10-31T06:43:17;4.60;;;3.77;;
14191;SDS011;7177;48.572;7.838;2022-10-31T06:45:43;8.93;;;6.20;;
14191;SDS011;7177;48.572;7.838;2022-10-31T06:48:08;9.63;;;5.73;;
14191;SDS011;7177;48.572;7.838;2022-10-31T06:50:34;6.17;;;4.40;;
14191;SDS011;7177;48.572;7.838;2022-10-31T06:52:59;6.40;;;4.07;;
14191;SDS011;7177;48.572;7.838;2022-10-31T06:55:25;6.13;;;3.60;;
14191;SDS011;7177;48.572;7.838;2022-10-31T06:57:52;6.83;;;4.20;;
14191;SDS011;7177;48.572;7.838;2022-10-31T07:00:18;6.10;;;4.10;;
14191;SDS011;7177;48.572;7.838;2022-10-31T07:02:51;5.70;;;4.10;;
14191;SDS011;7177;48.572;7.838;2022-10-31T07:05:18;9.13;;;4.43;;
14191;SDS011;7177;48.572;7.838;2022-10-31T07:07:43;6.03;;;4.40;;
14191;SDS011;7177;48.572;7.838;2022-10-31T07:10:09;8.20;;;4.60;;
14191;SDS011;7177;48.572;7.838;2022-10-31T07:12:34;11.13;;;4.90;;
14191;SDS011;7177;48.572;7.838;2022-10-31T07:15:00;13.40;;;5.13;;
14191;SDS011;7177;48.572;7.838;2022-10-31T07:17:25;7.60;;;4.93;;
14191;SDS011;7177;48.572;7.838;2022-10-31T07:19:51;5.77;;;4.23;;
14191;SDS011;7177;48.572;7.838;2022-10-31T07:22:16;9.83;;;5.40;;
14191;SDS011;7177;48.572;7.838;2022-10-31T07:24:42;10.53;;;4.87;;
14191;SDS011;7177;48.572;7.838;2022-10-31T07:27:07;10.40;;;5.47;;
14191;SDS011;7177;48.572;7.838;2022-10-31T07:29:33;6.40;;;4.53;;
14191;SDS011;7177;48.572;7.838;2022-10-31T07:31:58;8.30;;;4.60;;
14191;SDS011;7177;48.572;7.838;2022-10-31T07:34:24;8.33;;;5.00;;
14191;SDS011;7177;48.572;7.838;2022-10-31T07:36:50;18.07;;;11.70;;
14191;SDS011;7177;48.572;7.838;2022-10-31T07:39:15;10.60;;;6.37;;
14191;SDS011;7177;48.572;7.838;2022-10-31T07:41:41;10.17;;;4.90;;
14191;SDS011;7177;48.572;7.838;2022-10-31T07:44:07;9.83;;;4.50;;
14191;SDS011;7177;48.572;7.838;2022-10-31T07:46:32;8.27;;;3.93;;
14191;SDS011;7177;48.572;7.838;2022-10-31T07:48:58;9.10;;;4.20;;
14191;SDS011;7177;48.572;7.838;2022-10-31T07:51:23;6.50;;;4.40;;
14191;SDS011;7177;48.572;7.838;2022-10-31T07:53:49;11.63;;;4.77;;
14191;SDS011;7177;48.572;7.838;2022-10-31T07:56:14;10.07;;;4.23;;
14191;SDS011;7177;48.572;7.838;2022-10-31T07:58:40;10.50;;;4.87;;
14191;SDS011;7177;48.572;7.838;2022-10-31T08:01:05;8.57;;;4.27;;
14191;SDS011;7177;48.572;7.838;2022-10-31T08:03:31;8.47;;;4.50;;
14191;SDS011;7177;48.572;7.838;2022-10-31T08:05:56;8.97;;;4.53;;
14191;SDS011;7177;48.572;7.838;2022-10-31T08:08:22;13.77;;;4.67;;
14191;SDS011;7177;48.572;7.838;2022-10-31T08:10:49;6.50;;;4.33;;
14191;SDS011;7177;48.572;7.838;2022-10-31T08:13:14;7.57;;;4.37;;
14191;SDS011;7177;48.572;7.838;2022-10-31T08:15:40;8.20;;;3.90;;
14191;SDS011;7177;48.572;7.838;2022-10-31T08:18:10;11.00;;;3.97;;
14191;SDS011;7177;48.572;7.838;2022-10-31T08:20:40;10.87;;;4.60;;
14191;SDS011;7177;48.572;7.838;2022-10-31T08:23:06;13.70;;;6.40;;
14191;SDS011;7177;48.572;7.838;2022-10-31T08:25:34;16.67;;;7.80;;
14191;SDS011;7177;48.572;7.838;2022-10-31T08:28:00;11.80;;;8.03;;
14191;SDS011;7177;48.572;7.838;2022-10-31T08:30:27;14.43;;;7.77;;
14191;SDS011;7177;48.572;7.838;2022-10-31T08:33:14;13.20;;;7.40;;
14191;SDS011;7177;48.572;7.838;2022-10-31T08:35:42;15.33;;;6.97;;
14191;SDS011;7177;48.572;7.838;2022-10-31T08:38:09;11.10;;;6.57;;
14191;SDS011;7177;48.572;7.838;2022-10-31T08:40:36;11.80;;;6.03;;
14191;SDS011;7177;48.572;7.838;2022-10-31T08:43:03;12.80;;;5.90;;
14191;SDS011;7177;48.572;7.838;2022-10-31T08:45:31;9.50;;;6.00;;
14191;SDS011;7177;48.572;7.838;2022-10-31T08:47:58;11.77;;;6.73;;
14191;SDS011;7177;48.572;7.838;2022-10-31T08:50:25;13.93;;;6.53;;
14191;SDS011;7177;48.572;7.838;2022-10-31T08:52:51;13.83;;;7.37;;
14191;SDS011;7177;48.572;7.838;2022-10-31T08:55:17;15.30;;;7.23;;
14191;SDS011;7177;48.572;7.838;2022-10-31T08:57:42;14.73;;;6.93;;
14191;SDS011;7177;48.572;7.838;2022-10-31T09:00:08;10.27;;;7.03;;
14191;SDS011;7177;48.572;7.838;2022-10-31T09:02:34;12.50;;;8.27;;
14191;SDS011;7177;48.572;7.838;2022-10-31T09:04:59;11.07;;;7.47;;
14191;SDS011;7177;48.572;7.838;2022-10-31T09:07:25;17.13;;;8.90;;
14191;SDS011;7177;48.572;7.838;2022-10-31T09:09:51;16.50;;;8.77;;
14191;SDS011;7177;48.572;7.838;2022-10-31T09:12:16;14.17;;;7.17;;
14191;SDS011;7177;48.572;7.838;2022-10-31T09:14:42;12.30;;;7.90;;
14191;SDS011;7177;48.572;7.838;2022-10-31T09:17:07;15.43;;;7.83;;
14191;SDS011;7177;48.572;7.838;2022-10-31T09:19:33;17.33;;;8.10;;
14191;SDS011;7177;48.572;7.838;2022-10-31T09:21:58;15.53;;;7.90;;
14191;SDS011;7177;48.572;7.838;2022-10-31T09:24:24;14.53;;;8.57;;
14191;SDS011;7177;48.572;7.838;2022-10-31T09:26:49;12.93;;;8.03;;
14191;SDS011;7177;48.572;7.838;2022-10-31T09:29:15;19.70;;;8.60;;
14191;SDS011;7177;48.572;7.838;2022-10-31T09:31:40;14.97;;;8.77;;
14191;SDS011;7177;48.572;7.838;2022-10-31T09:34:06;18.43;;;9.93;;
14191;SDS011;7177;48.572;7.838;2022-10-31T09:36:31;17.93;;;9.80;;
14191;SDS011;7177;48.572;7.838;2022-10-31T09:38:57;23.43;;;10.83;;
14191;SDS011;7177;48.572;7.838;2022-10-31T09:44:21;18.37;;;10.13;;
14191;SDS011;7177;48.572;7.838;2022-10-31T09:46:56;14.53;;;8.70;;
14191;SDS011;7177;48.572;7.838;2022-10-31T09:52:18;16.13;;;9.43;;
14191;SDS011;7177;48.572;7.838;2022-10-31T09:55:00;13.40;;;8.23;;
14191;SDS011;7177;48.572;7.838;2022-10-31T09:57:32;13.33;;;8.37;;
14191;SDS011;7177;48.572;7.838;2022-10-31T09:59:59;13.03;;;9.37;;
14191;SDS011;7177;48.572;7.838;2022-10-31T10:19:04;21.67;;;11.80;;
14191;SDS011;7177;48.572;7.838;2022-10-31T10:22:12;22.97;;;11.37;;
14191;SDS011;7177;48.572;7.838;2022-10-31T10:32:47;16.70;;;9.93;;
14191;SDS011;7177;48.572;7.838;2022-10-31T10:38:09;13.47;;;9.47;;
14191;SDS011;7177;48.572;7.838;2022-10-31T10:40:35;17.23;;;8.53;;
14191;SDS011;7177;48.572;7.838;2022-10-31T10:45:44;14.03;;;8.67;;
14191;SDS011;7177;48.572;7.838;2022-10-31T10:57:11;18.73;;;9.73;;
14191;SDS011;7177;48.572;7.838;2022-10-31T11:00:10;16.13;;;10.27;;
14191;SDS011;7177;48.572;7.838;2022-10-31T11:02:47;17.10;;;10.80;;
14191;SDS011;7177;48.572;7.838;2022-10-31T11:05:17;16.10;;;10.13;;
14191;SDS011;7177;48.572;7.838;2022-10-31T11:07:46;17.33;;;9.90;;
14191;SDS011;7177;48.572;7.838;2022-10-31T11:10:12;18.30;;;10.70;;
14191;SDS011;7177;48.572;7.838;2022-10-31T11:12:39;20.07;;;10.03;;
14191;SDS011;7177;48.572;7.838;2022-10-31T11:15:07;16.80;;;9.50;;
14191;SDS011;7177;48.572;7.838;2022-10-31T11:17:47;14.20;;;9.27;;
14191;SDS011;7177;48.572;7.838;2022-10-31T11:22:41;18.70;;;10.23;;
14191;SDS011;7177;48.572;7.838;2022-10-31T11:25:24;25.27;;;13.23;;
14191;SDS011;7177;48.572;7.838;2022-10-31T11:30:29;20.83;;;12.83;;
14191;SDS011;7177;48.572;7.838;2022-10-31T11:33:00;19.00;;;11.53;;
14191;SDS011;7177;48.572;7.838;2022-10-31T11:35:26;19.97;;;10.50;;
14191;SDS011;7177;48.572;7.838;2022-10-31T11:37:54;16.30;;;11.07;;
14191;SDS011;7177;48.572;7.838;2022-10-31T11:40:24;20.77;;;11.10;;
14191;SDS011;7177;48.572;7.838;2022-10-31T11:42:52;24.90;;;11.37;;
14191;SDS011;7177;48.572;7.838;2022-10-31T11:47:49;21.73;;;10.47;;
14191;SDS011;7177;48.572;7.838;2022-10-31T11:53:03;21.17;;;11.20;;
14191;SDS011;7177;48.572;7.838;2022-10-31T11:55:37;18.27;;;10.13;;
14191;SDS011;7177;48.572;7.838;2022-10-31T11:58:04;13.37;;;10.30;;
14191;SDS011;7177;48.572;7.838;2022-10-31T12:00:49;18.17;;;9.93;;
14191;SDS011;7177;48.572;7.838;2022-10-31T12:08:30;17.07;;;8.17;;
14191;SDS011;7177;48.572;7.838;2022-10-31T12:11:03;16.77;;;8.23;;
14191;SDS011;7177;48.572;7.838;2022-10-31T12:14:00;14.90;;;8.43;;
14191;SDS011;7177;48.572;7.838;2022-10-31T12:19:29;20.00;;;9.00;;
14191;SDS011;7177;48.572;7.838;2022-10-31T12:22:09;13.87;;;8.77;;
14191;SDS011;7177;48.572;7.838;2022-10-31T12:25:15;13.97;;;8.30;;
14191;SDS011;7177;48.572;7.838;2022-10-31T12:28:00;16.13;;;8.27;;
14191;SDS011;7177;48.572;7.838;2022-10-31T12:33:40;13.50;;;8.37;;
14191;SDS011;7177;48.572;7.838;2022-10-31T12:44:29;12.90;;;7.10;;
14191;SDS011;7177;48.572;7.838;2022-10-31T12:49:49;8.43;;;6.13;;
14191;SDS011;7177;48.572;7.838;2022-10-31T12:52:28;13.53;;;7.40;;
14191;SDS011;7177;48.572;7.838;2022-10-31T12:58:21;11.70;;;6.53;;
14191;SDS011;7177;48.572;7.838;2022-10-31T13:00:36;11.07;;;6.13;;
14191;SDS011;7177;48.572;7.838;2022-10-31T13:05:55;16.87;;;6.80;;
14191;SDS011;7177;48.572;7.838;2022-10-31T13:08:28;16.90;;;6.43;;
14191;SDS011;7177;48.572;7.838;2022-10-31T13:13:51;14.47;;;7.60;;
14191;SDS011;7177;48.572;7.838;2022-10-31T13:16:24;17.17;;;7.40;;
14191;SDS011;7177;48.572;7.838;2022-10-31T13:19:01;13.20;;;7.10;;
14191;SDS011;7177;48.572;7.838;2022-10-31T13:21:36;18.20;;;6.43;;
14191;SDS011;7177;48.572;7.838;2022-10-31T13:24:16;12.00;;;6.57;;
14191;SDS011;7177;48.572;7.838;2022-10-31T13:26:47;13.63;;;7.63;;
14191;SDS011;7177;48.572;7.838;2022-10-31T13:29:18;18.47;;;6.73;;
14191;SDS011;7177;48.572;7.838;2022-10-31T13:31:50;13.13;;;7.40;;
14191;SDS011;7177;48.572;7.838;2022-10-31T13:36:50;11.87;;;5.80;;
14191;SDS011;7177;48.572;7.838;2022-10-31T13:39:49;12.47;;;6.00;;
14191;SDS011;7177;48.572;7.838;2022-10-31T13:45:17;12.83;;;6.90;;
14191;SDS011;7177;48.572;7.838;2022-10-31T13:47:54;12.77;;;7.27;;
14191;SDS011;7177;48.572;7.838;2022-10-31T13:50:25;13.90;;;7.10;;
14191;SDS011;7177;48.572;7.838;2022-10-31T13:53:03;15.07;;;8.17;;
14191;SDS011;7177;48.572;7.838;2022-10-31T13:55:48;11.97;;;7.20;;
14191;SDS011;7177;48.572;7.838;2022-10-31T13:58:34;17.57;;;8.20;;
14191;SDS011;7177;48.572;7.838;2022-10-31T14:03:35;11.23;;;7.60;;
14191;SDS011;7177;48.572;7.838;2022-10-31T14:06:05;14.00;;;7.77;;
14191;SDS011;7177;48.572;7.838;2022-10-31T14:08:35;19.23;;;8.27;;
14191;SDS011;7177;48.572;7.838;2022-10-31T14:11:05;15.97;;;8.47;;
14191;SDS011;7177;48.572;7.838;2022-10-31T14:13:35;15.17;;;8.30;;
14191;SDS011;7177;48.572;7.838;2022-10-31T14:16:18;13.40;;;7.60;;
14191;SDS011;7177;48.572;7.838;2022-10-31T14:18:49;14.70;;;7.73;;
14191;SDS011;7177;48.572;7.838;2022-10-31T14:23:51;12.50;;;7.63;;
14191;SDS011;7177;48.572;7.838;2022-10-31T14:28:46;14.87;;;7.10;;
14191;SDS011;7177;48.572;7.838;2022-10-31T14:31:32;13.90;;;7.20;;
14191;SDS011;7177;48.572;7.838;2022-10-31T14:36:41;11.80;;;6.70;;
14191;SDS011;7177;48.572;7.838;2022-10-31T14:40:17;12.13;;;6.93;;
14191;SDS011;7177;48.572;7.838;2022-10-31T14:50:51;10.80;;;5.90;;
14191;SDS011;7177;48.572;7.838;2022-10-31T14:53:26;13.87;;;6.80;;
14191;SDS011;7177;48.572;7.838;2022-10-31T14:55:57;11.50;;;6.70;;
14191;SDS011;7177;48.572;7.838;2022-10-31T14:58:26;11.73;;;6.57;;
14191;SDS011;7177;48.572;7.838;2022-10-31T15:01:05;17.00;;;7.70;;
14191;SDS011;7177;48.572;7.838;2022-10-31T15:03:32;10.10;;;7.10;;
14191;SDS011;7177;48.572;7.838;2022-10-31T15:06:03;14.20;;;6.57;;
14191;SDS011;7177;48.572;7.838;2022-10-31T15:11:12;12.63;;;6.43;;
14191;SDS011;7177;48.572;7.838;2022-10-31T15:16:18;14.53;;;7.07;;
14191;SDS011;7177;48.572;7.838;2022-10-31T15:18:48;11.13;;;7.43;;
14191;SDS011;7177;48.572;7.838;2022-10-31T15:21:16;14.30;;;8.40;;
14191;SDS011;7177;48.572;7.838;2022-10-31T15:23:42;12.30;;;7.73;;
14191;SDS011;7177;48.572;7.838;2022-10-31T15:26:19;13.87;;;7.77;;
14191;SDS011;7177;48.572;7.838;2022-10-31T15:28:56;10.37;;;6.40;;
14191;SDS011;7177;48.572;7.838;2022-10-31T15:31:49;8.10;;;6.20;;
14191;SDS011;7177;48.572;7.838;2022-10-31T15:34:39;9.03;;;6.40;;
14191;SDS011;7177;48.572;7.838;2022-10-31T15:37:25;10.17;;;6.40;;
14191;SDS011;7177;48.572;7.838;2022-10-31T15:39:52;13.33;;;8.13;;
14191;SDS011;7177;48.572;7.838;2022-10-31T15:42:25;20.10;;;11.97;;
14191;SDS011;7177;48.572;7.838;2022-10-31T15:45:02;16.63;;;9.20;;
14191;SDS011;7177;48.572;7.838;2022-10-31T15:47:45;17.27;;;9.77;;
14191;SDS011;7177;48.572;7.838;2022-10-31T15:50:37;17.97;;;10.50;;
14191;SDS011;7177;48.572;7.838;2022-10-31T15:53:05;12.60;;;8.90;;
14191;SDS011;7177;48.572;7.838;2022-10-31T15:55:45;20.00;;;11.37;;
14191;SDS011;7177;48.572;7.838;2022-10-31T15:58:16;16.50;;;10.47;;
14191;SDS011;7177;48.572;7.838;2022-10-31T16:00:43;15.67;;;8.90;;
14191;SDS011;7177;48.572;7.838;2022-10-31T16:05:59;16.57;;;8.87;;
14191;SDS011;7177;48.572;7.838;2022-10-31T16:10:59;13.67;;;8.10;;
14191;SDS011;7177;48.572;7.838;2022-10-31T16:13:37;15.97;;;9.23;;
14191;SDS011;7177;48.572;7.838;2022-10-31T16:16:16;10.27;;;7.63;;
14191;SDS011;7177;48.572;7.838;2022-10-31T16:18:42;13.97;;;9.80;;
14191;SDS011;7177;48.572;7.838;2022-10-31T16:21:08;15.70;;;11.00;;
14191;SDS011;7177;48.572;7.838;2022-10-31T16:23:35;19.17;;;11.33;;
14191;SDS011;7177;48.572;7.838;2022-10-31T16:26:06;14.63;;;9.10;;
14191;SDS011;7177;48.572;7.838;2022-10-31T16:28:33;13.90;;;8.47;;
14191;SDS011;7177;48.572;7.838;2022-10-31T16:31:00;21.47;;;11.10;;
14191;SDS011;7177;48.572;7.838;2022-10-31T16:33:33;15.70;;;9.27;;
14191;SDS011;7177;48.572;7.838;2022-10-31T16:36:01;16.40;;;8.77;;
14191;SDS011;7177;48.572;7.838;2022-10-31T16:38:55;15.93;;;8.30;;
14191;SDS011;7177;48.572;7.838;2022-10-31T16:41:21;21.30;;;12.47;;
14191;SDS011;7177;48.572;7.838;2022-10-31T16:43:47;21.77;;;11.30;;
14191;SDS011;7177;48.572;7.838;2022-10-31T16:46:26;19.07;;;11.50;;
14191;SDS011;7177;48.572;7.838;2022-10-31T16:48:52;18.77;;;11.30;;
14191;SDS011;7177;48.572;7.838;2022-10-31T16:51:19;18.47;;;10.30;;
14191;SDS011;7177;48.572;7.838;2022-10-31T16:53:45;21.47;;;12.07;;
14191;SDS011;7177;48.572;7.838;2022-10-31T16:56:44;26.63;;;11.63;;
14191;SDS011;7177;48.572;7.838;2022-10-31T16:59:03;19.73;;;10.60;;
14191;SDS011;7177;48.572;7.838;2022-10-31T17:01:31;12.47;;;9.80;;
14191;SDS011;7177;48.572;7.838;2022-10-31T17:03:59;18.60;;;10.97;;
14191;SDS011;7177;48.572;7.838;2022-10-31T17:06:24;16.00;;;8.93;;
14191;SDS011;7177;48.572;7.838;2022-10-31T17:08:52;16.93;;;9.57;;
14191;SDS011;7177;48.572;7.838;2022-10-31T17:11:18;22.03;;;11.50;;
14191;SDS011;7177;48.572;7.838;2022-10-31T17:13:47;16.00;;;9.93;;
14191;SDS011;7177;48.572;7.838;2022-10-31T17:16:13;17.33;;;10.00;;
14191;SDS011;7177;48.572;7.838;2022-10-31T17:18:39;18.23;;;11.30;;
14191;SDS011;7177;48.572;7.838;2022-10-31T17:21:05;16.20;;;11.47;;
14191;SDS011;7177;48.572;7.838;2022-10-31T17:23:31;16.97;;;11.37;;
14191;SDS011;7177;48.572;7.838;2022-10-31T17:25:57;23.73;;;11.20;;
14191;SDS011;7177;48.572;7.838;2022-10-31T17:28:23;20.53;;;12.97;;